AirNav   Air Wisconsin pilot careers
 
 453 users online  

MO21 St Joseph Medical Center Heliport
Kansas City, Missouri, USA

GOING TO KANSAS CITY?


FAA INFORMATION EFFECTIVE 03 JANUARY 2019

Location

FAA Identifier: MO21
Lat/Long: 38-56-10.8000N / 094-36-18.4600W
38-56.180000N / 094-36.307667W
38.9363333 / -94.6051278
(estimated)
Elevation: 900 ft. / 274 m (estimated)
Variation: 05E (1985)
Time zone: UTC -6 (UTC -5 during Daylight Saving Time)
Zip code: 64114

Heliport Operations

Heliport use: Private use, MEDICAL.
Activation date: 11/1988
Control tower: no
ARTCC: KANSAS CITY CENTER
FSS: COLUMBIA FLIGHT SERVICE STATION
Attendance: CONTINUOUS
Wind indicator: lighted
Segmented circle: no
Lights: SS-SR

Heliport Communications

UNICOM: 123.05
WX ASOS at OJC (8 nm SW): PHONE 913-780-6969
WX ASOS at LXT (11 nm E): 124.175 (816-347-9807)
WX ASOS at MKC (11 nm N): PHONE 816-329-2843
WX ASOS at IXD (15 nm SW): 135.325 (913-780-6987)

Nearby radio navigation aids

VOR radial/distance  VOR name  Freq  Var
MCIr159/21.8KANSAS CITY VORTAC113.2505E
ANXr240/24.2NAPOLEON VORTAC114.0007E

 
NDB name  Hdg/Dist  Freq  Var  ID
HERBB025/12.642004EPK .--. -.-

Heliport Services

Runway Information

Helipad H1

Dimensions: 45 x 45 ft. / 14 x 14 m
Surface: asphalt
Runway edge lights: PERIMETER LGTS.
Latitude: 38-56.180000N
Longitude: 094-36.307667W
Elevation: 900.0 ft.
Traffic pattern: leftleft

Heliport Ownership and Management from official FAA records

Ownership: Privately-owned
Owner: ST JOSEPH HEALTH CENTER
1000 CARONDELET DR
KANSAS CITY, MO 64114
Phone 816-942-4400
Manager: JAMES CHRISTIAN
ST JOSEPH HEALTH CENTER
1000 CARONDELET DR
Phone (816) 943-4713

Additional Remarks

SEE AIRSPACE LTR DATED 3/3/98.
FOR CD CTC KANSAS CITY APCH AT 816-329-2710.

Instrument Procedures

There are no published instrument procedures at MO21.

Some nearby airports with instrument procedures:

KOJC - Johnson County Executive Airport (8 nm SW)
KLXT - Lee's Summit Municipal Airport (11 nm E)
KMKC - Charles B Wheeler Downtown Airport (11 nm N)
KIXD - New Century AirCenter Airport (15 nm SW)
3GV - East Kansas City Airport (19 nm E)
 
Loc | Ops | Rwys | IFR | FBO | Links
Com | Nav | Svcs | Stats | Notes

Kansas City Aviation Department
 
Area around MO21 (St Joseph Medical Center Heliport)
 
Road maps at: MapQuest Bing Google
 
Aerial photo
No photo
 
Sectional chart

 
Airport distance calculator
Flying to St Joseph Medical Center Heliport? Find the distance to fly.

From to MO21

Sunrise and sunset
Times for 16-Jan-2019
 Local
(UTC-6)
 Zulu
(UTC)
Morning civil twilight07:0713:07
Sunrise07:3613:36
Sunset17:2023:20
Evening civil twilight17:4923:49

Current date and time
Zulu (UTC)  16-Jan-2019 06:52:07
Local (UTC-6)  16-Jan-2019 00:52:07
 
METAR
KOJC 
8nm SW 
160553Z AUTO 30003KT 1/4SM FG VV002 00/00 A3016 RMK AO2 SLP222 T00000000 10000 21006 400061017 50004
KMKC 
11nm N 
160612Z 29005KT 3/4SM BR VV002 02/01 A3017 RMK AO2 T00170006 $
KLXT 
11nm E 
160553Z AUTO 29005KT 1/4SM FG VV002 01/01 A3016 RMK AO2 SLP223 T00060006 10006 20000 400111017 51006
KIXD 
15nm SW 
160553Z AUTO 28003KT 1/4SM FG VV002 01/01 A3017 RMK AO2 SLP223 T00060006 10006 20000 400061011 50004 $
TAF
KMKC 
11nm N 
160526Z 1606/1706 VRB05KT 3/4SM BR OVC002 TEMPO 1608/1612 1/4SM FZFG FM161300 05008KT 2SM BR OVC003 FM162000 08005KT 4SM BR OVC004 FM170300 07005KT 1SM -FZDZ BR OVC002
KIXD 
15nm SW 
160526Z 1606/1706 27005KT 1/4SM FZFG OVC002 FM160800 VRB05KT 1/4SM FZFG OVC002 FM161400 05008KT 2SM BR OVC003 FM162000 08005KT 4SM BR OVC004 FM170300 07005KT 1SM -FZDZ BR OVC002
NOTAMs
Click for the latest NOTAMs
NOTAMs are issued by the DoD/FAA and will open in a separate window not controlled by AirNav.

 

 
 

Would you like to see your business listed on this page?

 If your business provides an interesting product or service to pilots, flight crews, aircraft, or users of the St Joseph Medical Center Heliport, you should consider listing it here.  To start the listing process, click on the button below
 
Add a business
 

Other Pages about St Joseph Medical Center Heliport

Update a link
 
Copyright © AirNav, LLC. All rights reserved. Privacy Policy  Contact